sensor_id;sensor_type;location;lat;lon;timestamp;pressure;altitude;pressure_sealevel;temperature;humidity
25638;BME280;13496;51.040;13.680;2023-04-25T00:00:31;98929.66;;;20.79;49.09
25638;BME280;13496;51.040;13.680;2023-04-25T00:05:32;98929.91;;;20.78;49.18
25638;BME280;13496;51.040;13.680;2023-04-25T00:10:34;98925.44;;;20.78;48.79
25638;BME280;13496;51.040;13.680;2023-04-25T00:15:36;98926.47;;;20.77;49.08
25638;BME280;13496;51.040;13.680;2023-04-25T00:20:39;98921.63;;;20.74;48.83
25638;BME280;13496;51.040;13.680;2023-04-25T00:25:41;98924.28;;;20.74;48.91
25638;BME280;13496;51.040;13.680;2023-04-25T00:30:43;98930.78;;;20.72;49.01
25638;BME280;13496;51.040;13.680;2023-04-25T00:35:45;98935.25;;;20.71;49.14
25638;BME280;13496;51.040;13.680;2023-04-25T00:40:46;98932.84;;;20.70;49.13
25638;BME280;13496;51.040;13.680;2023-04-25T00:45:48;98924.34;;;20.68;49.26
25638;BME280;13496;51.040;13.680;2023-04-25T00:50:58;98922.75;;;20.67;48.97
25638;BME280;13496;51.040;13.680;2023-04-25T00:55:59;98921.16;;;20.66;49.06
25638;BME280;13496;51.040;13.680;2023-04-25T01:01:02;98919.31;;;20.66;49.27
25638;BME280;13496;51.040;13.680;2023-04-25T01:06:04;98916.06;;;20.64;48.89
25638;BME280;13496;51.040;13.680;2023-04-25T01:11:06;98917.34;;;20.62;49.24
25638;BME280;13496;51.040;13.680;2023-04-25T01:16:08;98919.16;;;20.61;49.45
25638;BME280;13496;51.040;13.680;2023-04-25T01:21:10;98916.75;;;20.60;49.15
25638;BME280;13496;51.040;13.680;2023-04-25T01:26:13;98920.84;;;20.56;49.24
25638;BME280;13496;51.040;13.680;2023-04-25T01:31:16;98910.31;;;20.56;49.28
25638;BME280;13496;51.040;13.680;2023-04-25T01:36:20;98911.34;;;20.54;49.49
25638;BME280;13496;51.040;13.680;2023-04-25T01:41:23;98913.16;;;20.54;49.26
25638;BME280;13496;51.040;13.680;2023-04-25T01:46:25;98909.56;;;20.48;49.53
25638;BME280;13496;51.040;13.680;2023-04-25T01:51:27;98913.00;;;20.49;49.42
25638;BME280;13496;51.040;13.680;2023-04-25T01:56:32;98918.69;;;20.46;49.53
25638;BME280;13496;51.040;13.680;2023-04-25T02:01:37;98923.16;;;20.45;49.45
25638;BME280;13496;51.040;13.680;2023-04-25T02:06:54;98914.47;;;20.45;49.35
25638;BME280;13496;51.040;13.680;2023-04-25T02:11:58;98915.69;;;20.42;49.42
25638;BME280;13496;51.040;13.680;2023-04-25T02:16:59;98922.81;;;20.42;49.35
25638;BME280;13496;51.040;13.680;2023-04-25T02:22:01;98919.59;;;20.40;49.22
25638;BME280;13496;51.040;13.680;2023-04-25T02:27:03;98910.06;;;20.39;49.48
25638;BME280;13496;51.040;13.680;2023-04-25T02:32:05;98914.75;;;20.37;49.26
25638;BME280;13496;51.040;13.680;2023-04-25T02:37:06;98910.28;;;20.37;49.47
25638;BME280;13496;51.040;13.680;2023-04-25T02:42:08;98910.16;;;20.32;49.53
25638;BME280;13496;51.040;13.680;2023-04-25T02:47:10;98906.25;;;20.35;49.68
25638;BME280;13496;51.040;13.680;2023-04-25T02:52:12;98901.66;;;20.30;49.67
25638;BME280;13496;51.040;13.680;2023-04-25T02:57:13;98905.31;;;20.29;49.46
25638;BME280;13496;51.040;13.680;2023-04-25T03:02:16;98906.13;;;20.29;49.58
25638;BME280;13496;51.040;13.680;2023-04-25T03:07:17;98912.06;;;20.25;49.50
25638;BME280;13496;51.040;13.680;2023-04-25T03:12:19;98907.22;;;20.22;49.41
25638;BME280;13496;51.040;13.680;2023-04-25T03:17:21;98898.53;;;20.21;49.57
25638;BME280;13496;51.040;13.680;2023-04-25T03:22:24;98909.44;;;20.25;49.49
25638;BME280;13496;51.040;13.680;2023-04-25T03:27:26;98900.94;;;20.23;49.58
25638;BME280;13496;51.040;13.680;2023-04-25T03:32:28;98905.38;;;20.22;49.72
25638;BME280;13496;51.040;13.680;2023-04-25T03:37:30;98907.44;;;20.20;49.49
25638;BME280;13496;51.040;13.680;2023-04-25T03:42:32;98901.00;;;20.16;49.63
25638;BME280;13496;51.040;13.680;2023-04-25T03:47:33;98906.06;;;20.18;49.66
25638;BME280;13496;51.040;13.680;2023-04-25T03:52:35;98911.53;;;20.16;49.39
25638;BME280;13496;51.040;13.680;2023-04-25T03:57:38;98909.13;;;20.15;49.42
25638;BME280;13496;51.040;13.680;2023-04-25T04:02:40;98902.44;;;20.12;49.15
25638;BME280;13496;51.040;13.680;2023-04-25T04:07:43;98911.97;;;20.13;49.95
25638;BME280;13496;51.040;13.680;2023-04-25T04:12:46;98908.94;;;20.10;49.68
25638;BME280;13496;51.040;13.680;2023-04-25T04:17:48;98906.13;;;20.11;49.41
25638;BME280;13496;51.040;13.680;2023-04-25T04:22:50;98902.69;;;20.11;49.46
25638;BME280;13496;51.040;13.680;2023-04-25T04:27:54;98905.09;;;20.12;49.65
25638;BME280;13496;51.040;13.680;2023-04-25T04:33:14;98915.06;;;20.10;49.88
25638;BME280;13496;51.040;13.680;2023-04-25T04:38:18;98915.25;;;20.09;50.12
25638;BME280;13496;51.040;13.680;2023-04-25T04:43:20;98919.28;;;20.11;49.93
25638;BME280;13496;51.040;13.680;2023-04-25T04:48:32;98920.88;;;20.12;49.87
25638;BME280;13496;51.040;13.680;2023-04-25T04:53:58;98917.09;;;20.08;50.15
25638;BME280;13496;51.040;13.680;2023-04-25T04:59:22;98923.16;;;20.09;49.96
25638;BME280;13496;51.040;13.680;2023-04-25T05:04:53;98941.97;;;20.12;49.94
25638;BME280;13496;51.040;13.680;2023-04-25T05:10:02;98933.25;;;20.12;49.99
25638;BME280;13496;51.040;13.680;2023-04-25T05:15:19;98938.28;;;20.13;49.75
25638;BME280;13496;51.040;13.680;2023-04-25T05:20:27;98943.56;;;20.13;49.80
25638;BME280;13496;51.040;13.680;2023-04-25T05:25:40;98933.03;;;20.13;49.98
25638;BME280;13496;51.040;13.680;2023-04-25T05:30:49;98932.03;;;20.14;49.78
25638;BME280;13496;51.040;13.680;2023-04-25T05:36:04;98933.19;;;20.18;49.90
25638;BME280;13496;51.040;13.680;2023-04-25T05:41:06;98930.75;;;20.17;49.60
25638;BME280;13496;51.040;13.680;2023-04-25T05:46:29;98942.28;;;20.22;49.83
25638;BME280;13496;51.040;13.680;2023-04-25T05:52:00;98942.84;;;20.24;49.48
25638;BME280;13496;51.040;13.680;2023-04-25T05:57:26;98945.47;;;20.24;49.32
25638;BME280;13496;51.040;13.680;2023-04-25T06:02:29;98937.94;;;20.28;49.70
25638;BME280;13496;51.040;13.680;2023-04-25T06:07:31;98948.28;;;20.29;49.81
25638;BME280;13496;51.040;13.680;2023-04-25T06:12:33;98951.94;;;20.28;49.40
25638;BME280;13496;51.040;13.680;2023-04-25T06:17:35;98948.72;;;20.26;49.12
25638;BME280;13496;51.040;13.680;2023-04-25T06:22:38;98949.88;;;20.30;48.76
25638;BME280;13496;51.040;13.680;2023-04-25T06:27:39;98949.88;;;20.30;48.65
25638;BME280;13496;51.040;13.680;2023-04-25T06:32:41;98955.16;;;20.30;49.11
25638;BME280;13496;51.040;13.680;2023-04-25T06:37:44;98954.94;;;20.32;49.28
25638;BME280;13496;51.040;13.680;2023-04-25T06:42:46;98943.94;;;20.35;49.18
25638;BME280;13496;51.040;13.680;2023-04-25T06:48:06;98953.84;;;20.40;49.25
25638;BME280;13496;51.040;13.680;2023-04-25T06:53:08;98942.84;;;20.43;49.47
25638;BME280;13496;51.040;13.680;2023-04-25T06:58:11;98955.03;;;20.44;49.74
25638;BME280;13496;51.040;13.680;2023-04-25T07:03:27;98935.72;;;20.50;49.54
25638;BME280;13496;51.040;13.680;2023-04-25T07:08:33;98953.16;;;20.51;49.21
25638;BME280;13496;51.040;13.680;2023-04-25T07:13:36;98950.91;;;20.48;49.63
25638;BME280;13496;51.040;13.680;2023-04-25T07:18:38;98952.84;;;20.59;48.97
25638;BME280;13496;51.040;13.680;2023-04-25T07:23:40;98954.44;;;20.60;49.32
25638;BME280;13496;51.040;13.680;2023-04-25T07:28:46;98957.44;;;20.64;49.34
25638;BME280;13496;51.040;13.680;2023-04-25T07:33:51;98958.63;;;20.68;49.48
25638;BME280;13496;51.040;13.680;2023-04-25T07:38:52;98959.22;;;20.70;48.62
25638;BME280;13496;51.040;13.680;2023-04-25T07:43:54;98951.94;;;20.84;48.95
25638;BME280;13496;51.040;13.680;2023-04-25T07:48:56;98960.94;;;20.76;48.58
25638;BME280;13496;51.040;13.680;2023-04-25T07:53:59;98962.66;;;20.70;49.16
25638;BME280;13496;51.040;13.680;2023-04-25T07:59:01;98962.03;;;20.87;48.36
25638;BME280;13496;51.040;13.680;2023-04-25T08:04:03;98962.63;;;20.89;49.03
25638;BME280;13496;51.040;13.680;2023-04-25T08:09:18;98982.38;;;20.98;48.68
25638;BME280;13496;51.040;13.680;2023-04-25T08:14:21;98978.25;;;21.02;48.49
25638;BME280;13496;51.040;13.680;2023-04-25T08:19:24;98986.84;;;20.97;48.71
25638;BME280;13496;51.040;13.680;2023-04-25T08:24:27;98988.91;;;20.95;48.40
25638;BME280;13496;51.040;13.680;2023-04-25T08:29:29;98988.81;;;21.02;48.10
25638;BME280;13496;51.040;13.680;2023-04-25T08:34:31;98983.66;;;20.95;48.04
25638;BME280;13496;51.040;13.680;2023-04-25T08:39:38;99002.75;;;20.91;48.07
25638;BME280;13496;51.040;13.680;2023-04-25T08:45:08;98998.06;;;20.93;48.03
25638;BME280;13496;51.040;13.680;2023-04-25T08:50:13;99003.28;;;20.81;47.05
25638;BME280;13496;51.040;13.680;2023-04-25T08:55:16;99012.84;;;20.94;47.45
25638;BME280;13496;51.040;13.680;2023-04-25T09:00:18;99013.22;;;20.97;47.49
25638;BME280;13496;51.040;13.680;2023-04-25T09:05:22;99021.38;;;20.96;46.99
25638;BME280;13496;51.040;13.680;2023-04-25T09:10:28;99021.31;;;20.84;47.26
25638;BME280;13496;51.040;13.680;2023-04-25T09:15:32;99035.66;;;20.88;47.02
25638;BME280;13496;51.040;13.680;2023-04-25T09:20:53;99041.66;;;20.95;47.29
25638;BME280;13496;51.040;13.680;2023-04-25T09:25:55;99044.38;;;20.89;45.98
25638;BME280;13496;51.040;13.680;2023-04-25T09:30:57;99046.47;;;20.80;46.38
25638;BME280;13496;51.040;13.680;2023-04-25T09:36:09;99066.19;;;20.77;46.86
25638;BME280;13496;51.040;13.680;2023-04-25T09:41:41;99067.81;;;20.78;46.81
25638;BME280;13496;51.040;13.680;2023-04-25T09:46:43;99074.69;;;20.79;47.04
25638;BME280;13496;51.040;13.680;2023-04-25T09:51:57;99067.72;;;20.85;47.19
25638;BME280;13496;51.040;13.680;2023-04-25T09:57:21;99065.66;;;20.87;45.48
25638;BME280;13496;51.040;13.680;2023-04-25T10:02:25;99068.41;;;20.99;46.24
25638;BME280;13496;51.040;13.680;2023-04-25T10:07:30;99067.88;;;21.09;46.01
25638;BME280;13496;51.040;13.680;2023-04-25T10:12:33;99076.69;;;21.02;45.67
25638;BME280;13496;51.040;13.680;2023-04-25T10:17:35;99092.34;;;20.97;45.38
25638;BME280;13496;51.040;13.680;2023-04-25T10:22:42;99093.75;;;21.00;45.68
25638;BME280;13496;51.040;13.680;2023-04-25T10:27:45;99091.66;;;21.20;45.50
25638;BME280;13496;51.040;13.680;2023-04-25T10:32:47;99094.31;;;21.20;45.14
25638;BME280;13496;51.040;13.680;2023-04-25T10:43:38;99098.41;;;20.98;44.99
25638;BME280;13496;51.040;13.680;2023-04-25T10:48:45;99107.06;;;20.87;45.22
25638;BME280;13496;51.040;13.680;2023-04-25T10:53:59;99106.25;;;20.86;46.08
25638;BME280;13496;51.040;13.680;2023-04-25T10:59:15;99114.31;;;20.73;45.72
25638;BME280;13496;51.040;13.680;2023-04-25T11:04:21;99123.22;;;20.72;45.19
25638;BME280;13496;51.040;13.680;2023-04-25T11:09:23;99127.50;;;20.73;45.01
25638;BME280;13496;51.040;13.680;2023-04-25T11:14:26;99127.59;;;20.85;45.63
25638;BME280;13496;51.040;13.680;2023-04-25T11:19:29;99148.31;;;20.81;45.35
25638;BME280;13496;51.040;13.680;2023-04-25T11:24:32;99140.41;;;20.99;45.32
25638;BME280;13496;51.040;13.680;2023-04-25T11:29:35;99152.19;;;20.97;44.13
25638;BME280;13496;51.040;13.680;2023-04-25T11:34:37;99155.19;;;21.00;43.37
25638;BME280;13496;51.040;13.680;2023-04-25T11:39:42;99170.59;;;21.03;43.31
25638;BME280;13496;51.040;13.680;2023-04-25T11:44:45;99167.44;;;21.13;44.01
25638;BME280;13496;51.040;13.680;2023-04-25T11:49:48;99157.56;;;21.27;43.99
25638;BME280;13496;51.040;13.680;2023-04-25T11:54:50;99160.25;;;21.20;44.21
25638;BME280;13496;51.040;13.680;2023-04-25T11:59:51;99172.16;;;21.11;43.81
25638;BME280;13496;51.040;13.680;2023-04-25T12:04:53;99170.22;;;21.00;44.18
25638;BME280;13496;51.040;13.680;2023-04-25T12:09:55;99171.41;;;21.04;44.58
25638;BME280;13496;51.040;13.680;2023-04-25T12:15:08;99173.72;;;20.94;44.09
25638;BME280;13496;51.040;13.680;2023-04-25T12:20:15;99175.28;;;21.01;44.42
25638;BME280;13496;51.040;13.680;2023-04-25T12:31:00;99181.38;;;21.20;44.59
25638;BME280;13496;51.040;13.680;2023-04-25T12:36:03;99167.63;;;21.37;43.32
25638;BME280;13496;51.040;13.680;2023-04-25T12:41:09;99161.56;;;21.36;44.38
25638;BME280;13496;51.040;13.680;2023-04-25T12:46:11;99178.28;;;21.23;44.30
25638;BME280;13496;51.040;13.680;2023-04-25T12:51:13;99170.25;;;21.18;44.05
25638;BME280;13496;51.040;13.680;2023-04-25T12:56:14;99177.00;;;21.14;44.18
25638;BME280;13496;51.040;13.680;2023-04-25T13:01:16;99186.78;;;21.07;43.69
25638;BME280;13496;51.040;13.680;2023-04-25T13:06:20;99185.25;;;20.99;43.99
25638;BME280;13496;51.040;13.680;2023-04-25T13:11:21;99188.88;;;20.98;44.43
25638;BME280;13496;51.040;13.680;2023-04-25T13:16:23;99205.88;;;20.84;43.72
25638;BME280;13496;51.040;13.680;2023-04-25T13:21:25;99202.25;;;20.78;44.75
25638;BME280;13496;51.040;13.680;2023-04-25T13:26:27;99227.91;;;20.65;43.03
25638;BME280;13496;51.040;13.680;2023-04-25T13:31:28;99231.56;;;20.64;44.15
25638;BME280;13496;51.040;13.680;2023-04-25T13:36:30;99232.19;;;20.66;45.24
25638;BME280;13496;51.040;13.680;2023-04-25T13:41:33;99235.25;;;20.63;45.39
25638;BME280;13496;51.040;13.680;2023-04-25T13:46:34;99229.75;;;20.64;44.99
25638;BME280;13496;51.040;13.680;2023-04-25T13:51:36;99236.06;;;20.63;45.34
25638;BME280;13496;51.040;13.680;2023-04-25T13:56:38;99241.91;;;20.65;46.19
25638;BME280;13496;51.040;13.680;2023-04-25T14:01:39;99246.81;;;20.62;45.93
25638;BME280;13496;51.040;13.680;2023-04-25T14:06:41;99250.06;;;20.57;45.46
25638;BME280;13496;51.040;13.680;2023-04-25T14:11:43;99251.25;;;20.61;45.49
25638;BME280;13496;51.040;13.680;2023-04-25T14:16:45;99244.38;;;20.60;46.21
25638;BME280;13496;51.040;13.680;2023-04-25T14:21:47;99249.38;;;20.68;46.06
25638;BME280;13496;51.040;13.680;2023-04-25T14:26:49;99245.06;;;20.81;45.96
25638;BME280;13496;51.040;13.680;2023-04-25T14:31:51;99249.88;;;20.84;45.79
25638;BME280;13496;51.040;13.680;2023-04-25T14:36:52;99245.81;;;20.88;45.66
25638;BME280;13496;51.040;13.680;2023-04-25T14:41:54;99251.19;;;20.74;44.72
25638;BME280;13496;51.040;13.680;2023-04-25T14:46:56;99252.34;;;20.78;45.10
25638;BME280;13496;51.040;13.680;2023-04-25T14:51:57;99254.47;;;20.70;45.28
25638;BME280;13496;51.040;13.680;2023-04-25T14:56:59;99258.47;;;20.72;44.85
25638;BME280;13496;51.040;13.680;2023-04-25T15:02:02;99261.94;;;20.73;45.00
25638;BME280;13496;51.040;13.680;2023-04-25T15:07:03;99259.69;;;20.76;45.54
25638;BME280;13496;51.040;13.680;2023-04-25T15:12:05;99278.94;;;20.77;45.80
25638;BME280;13496;51.040;13.680;2023-04-25T15:17:07;99282.84;;;20.68;43.60
25638;BME280;13496;51.040;13.680;2023-04-25T15:22:09;99285.09;;;20.64;44.76
25638;BME280;13496;51.040;13.680;2023-04-25T15:27:10;99289.03;;;20.55;45.34
25638;BME280;13496;51.040;13.680;2023-04-25T15:32:12;99285.59;;;20.48;45.77
25638;BME280;13496;51.040;13.680;2023-04-25T15:37:14;99294.09;;;20.50;46.17
25638;BME280;13496;51.040;13.680;2023-04-25T15:42:16;99289.84;;;20.49;46.19
25638;BME280;13496;51.040;13.680;2023-04-25T15:47:17;99293.50;;;20.48;46.40
25638;BME280;13496;51.040;13.680;2023-04-25T15:52:19;99301.59;;;20.46;46.25
25638;BME280;13496;51.040;13.680;2023-04-25T15:57:22;99296.31;;;20.46;46.66
25638;BME280;13496;51.040;13.680;2023-04-25T16:02:24;99299.19;;;20.45;45.71
25638;BME280;13496;51.040;13.680;2023-04-25T16:07:26;99291.50;;;20.43;46.45
25638;BME280;13496;51.040;13.680;2023-04-25T16:12:28;99299.19;;;20.45;46.39
25638;BME280;13496;51.040;13.680;2023-04-25T16:17:31;99294.31;;;20.48;46.68
25638;BME280;13496;51.040;13.680;2023-04-25T16:22:33;99290.84;;;20.48;46.71
25638;BME280;13496;51.040;13.680;2023-04-25T16:27:35;99298.38;;;20.51;46.65
25638;BME280;13496;51.040;13.680;2023-04-25T16:32:40;99296.31;;;20.46;46.68
25638;BME280;13496;51.040;13.680;2023-04-25T16:37:41;99308.50;;;20.47;46.76
25638;BME280;13496;51.040;13.680;2023-04-25T16:42:43;99319.00;;;20.54;46.91
25638;BME280;13496;51.040;13.680;2023-04-25T16:47:45;99324.31;;;20.47;46.59
25638;BME280;13496;51.040;13.680;2023-04-25T16:52:47;99329.00;;;20.39;45.99
25638;BME280;13496;51.040;13.680;2023-04-25T16:57:48;99339.75;;;20.37;46.29
25638;BME280;13496;51.040;13.680;2023-04-25T17:02:50;99332.06;;;20.36;46.59
25638;BME280;13496;51.040;13.680;2023-04-25T17:07:52;99334.09;;;20.34;46.92
25638;BME280;13496;51.040;13.680;2023-04-25T17:12:54;99344.88;;;20.32;46.50
25638;BME280;13496;51.040;13.680;2023-04-25T17:17:55;99346.47;;;20.33;47.13
25638;BME280;13496;51.040;13.680;2023-04-25T17:22:57;99352.78;;;20.32;46.54
25638;BME280;13496;51.040;13.680;2023-04-25T17:28:00;99353.75;;;20.31;45.96
25638;BME280;13496;51.040;13.680;2023-04-25T17:33:01;99356.81;;;20.28;47.13
25638;BME280;13496;51.040;13.680;2023-04-25T17:38:04;99368.19;;;20.28;46.87
25638;BME280;13496;51.040;13.680;2023-04-25T17:43:06;99373.66;;;20.27;47.11
25638;BME280;13496;51.040;13.680;2023-04-25T17:48:08;99375.88;;;20.23;46.88
25638;BME280;13496;51.040;13.680;2023-04-25T17:53:10;99387.44;;;20.22;46.77
25638;BME280;13496;51.040;13.680;2023-04-25T17:58:11;99393.75;;;20.21;47.19
25638;BME280;13496;51.040;13.680;2023-04-25T18:03:13;99390.66;;;20.24;46.94
25638;BME280;13496;51.040;13.680;2023-04-25T18:08:15;99399.00;;;20.21;47.20
25638;BME280;13496;51.040;13.680;2023-04-25T18:13:16;99397.97;;;20.22;47.14
25638;BME280;13496;51.040;13.680;2023-04-25T18:18:23;99401.66;;;20.15;46.93
25638;BME280;13496;51.040;13.680;2023-04-25T18:23:28;99409.34;;;20.16;46.96
25638;BME280;13496;51.040;13.680;2023-04-25T18:28:30;99414.03;;;20.14;47.59
25638;BME280;13496;51.040;13.680;2023-04-25T18:33:32;99428.19;;;20.13;47.75
25638;BME280;13496;51.040;13.680;2023-04-25T18:38:33;99430.81;;;20.13;47.52
25638;BME280;13496;51.040;13.680;2023-04-25T18:43:35;99437.09;;;20.12;47.34
25638;BME280;13496;51.040;13.680;2023-04-25T18:48:37;99442.78;;;20.09;47.84
25638;BME280;13496;51.040;13.680;2023-04-25T18:53:38;99443.22;;;20.06;47.46
25638;BME280;13496;51.040;13.680;2023-04-25T18:58:41;99451.31;;;20.04;47.69
25638;BME280;13496;51.040;13.680;2023-04-25T19:08:49;99463.03;;;20.02;47.54
25638;BME280;13496;51.040;13.680;2023-04-25T19:13:52;99471.97;;;20.01;47.69
25638;BME280;13496;51.040;13.680;2023-04-25T19:18:57;99474.41;;;19.96;47.98
25638;BME280;13496;51.040;13.680;2023-04-25T19:23:59;99467.09;;;19.98;47.57
25638;BME280;13496;51.040;13.680;2023-04-25T19:29:12;99465.09;;;19.93;48.01
25638;BME280;13496;51.040;13.680;2023-04-25T19:34:14;99473.22;;;19.92;48.08
25638;BME280;13496;51.040;13.680;2023-04-25T19:39:16;99472.41;;;19.91;47.79
25638;BME280;13496;51.040;13.680;2023-04-25T19:44:18;99475.22;;;19.90;48.00
25638;BME280;13496;51.040;13.680;2023-04-25T19:49:20;99478.88;;;19.89;48.11
25638;BME280;13496;51.040;13.680;2023-04-25T19:54:21;99479.50;;;19.84;47.95
25638;BME280;13496;51.040;13.680;2023-04-25T19:59:23;99480.47;;;19.83;48.15
25638;BME280;13496;51.040;13.680;2023-04-25T20:04:25;99487.56;;;19.82;48.10
25638;BME280;13496;51.040;13.680;2023-04-25T20:09:27;99492.25;;;19.80;47.90
25638;BME280;13496;51.040;13.680;2023-04-25T20:14:29;99493.22;;;19.79;48.31
25638;BME280;13496;51.040;13.680;2023-04-25T20:19:30;99504.78;;;19.78;47.99
25638;BME280;13496;51.040;13.680;2023-04-25T20:24:33;99503.19;;;19.77;48.20
25638;BME280;13496;51.040;13.680;2023-04-25T20:29:34;99508.84;;;19.74;48.00
25638;BME280;13496;51.040;13.680;2023-04-25T20:34:36;99514.31;;;19.73;47.75
25638;BME280;13496;51.040;13.680;2023-04-25T20:39:38;99506.81;;;19.70;48.10
25638;BME280;13496;51.040;13.680;2023-04-25T20:44:40;99517.53;;;19.68;47.95
25638;BME280;13496;51.040;13.680;2023-04-25T20:49:41;99512.47;;;19.67;47.95
25638;BME280;13496;51.040;13.680;2023-04-25T20:54:44;99512.88;;;19.64;48.25
25638;BME280;13496;51.040;13.680;2023-04-25T20:59:46;99519.75;;;19.65;48.24
25638;BME280;13496;51.040;13.680;2023-04-25T21:04:48;99525.41;;;19.62;47.88
25638;BME280;13496;51.040;13.680;2023-04-25T21:09:50;99527.41;;;19.59;47.82
25638;BME280;13496;51.040;13.680;2023-04-25T21:14:52;99536.31;;;19.58;47.96
25638;BME280;13496;51.040;13.680;2023-04-25T21:19:53;99528.63;;;19.57;47.87
25638;BME280;13496;51.040;13.680;2023-04-25T21:24:55;99529.00;;;19.54;48.06
25638;BME280;13496;51.040;13.680;2023-04-25T21:30:05;99540.16;;;19.56;48.07
25638;BME280;13496;51.040;13.680;2023-04-25T21:35:07;99537.31;;;19.51;47.74
25638;BME280;13496;51.040;13.680;2023-04-25T21:40:09;99540.75;;;19.51;47.87
25638;BME280;13496;51.040;13.680;2023-04-25T21:45:10;99543.56;;;19.50;48.11
25638;BME280;13496;51.040;13.680;2023-04-25T21:50:13;99537.72;;;19.48;47.84
25638;BME280;13496;51.040;13.680;2023-04-25T21:55:15;99542.34;;;19.46;48.13
25638;BME280;13496;51.040;13.680;2023-04-25T22:00:18;99540.75;;;19.45;48.02
25638;BME280;13496;51.040;13.680;2023-04-25T22:05:25;99548.84;;;19.43;48.12
25638;BME280;13496;51.040;13.680;2023-04-25T22:10:27;99550.03;;;19.41;47.94
25638;BME280;13496;51.040;13.680;2023-04-25T22:15:29;99556.50;;;19.38;47.83
25638;BME280;13496;51.040;13.680;2023-04-25T22:20:31;99571.47;;;19.38;47.85
25638;BME280;13496;51.040;13.680;2023-04-25T22:25:33;99574.31;;;19.36;47.69
25638;BME280;13496;51.040;13.680;2023-04-25T22:30:35;99569.25;;;19.34;47.69
25638;BME280;13496;51.040;13.680;2023-04-25T22:35:38;99578.16;;;19.33;47.77
25638;BME280;13496;51.040;13.680;2023-04-25T22:40:40;99579.97;;;19.33;47.56
25638;BME280;13496;51.040;13.680;2023-04-25T22:45:41;99592.31;;;19.32;47.91
25638;BME280;13496;51.040;13.680;2023-04-25T22:50:43;99586.44;;;19.30;48.02
25638;BME280;13496;51.040;13.680;2023-04-25T22:55:54;99591.69;;;19.30;47.97
25638;BME280;13496;51.040;13.680;2023-04-25T23:00:56;99595.34;;;19.29;48.00
25638;BME280;13496;51.040;13.680;2023-04-25T23:05:58;99596.53;;;19.27;48.00
25638;BME280;13496;51.040;13.680;2023-04-25T23:11:04;99606.25;;;19.26;48.05
25638;BME280;13496;51.040;13.680;2023-04-25T23:16:08;99605.44;;;19.26;48.07
25638;BME280;13496;51.040;13.680;2023-04-25T23:21:10;99607.44;;;19.24;48.13
25638;BME280;13496;51.040;13.680;2023-04-25T23:26:12;99624.03;;;19.24;47.98
25638;BME280;13496;51.040;13.680;2023-04-25T23:31:14;99614.09;;;19.20;48.11
25638;BME280;13496;51.040;13.680;2023-04-25T23:36:17;99623.81;;;19.19;47.87
25638;BME280;13496;51.040;13.680;2023-04-25T23:41:21;99622.78;;;19.20;47.84
25638;BME280;13496;51.040;13.680;2023-04-25T23:46:23;99629.28;;;19.18;48.21
25638;BME280;13496;51.040;13.680;2023-04-25T23:51:25;99628.06;;;19.14;47.95
25638;BME280;13496;51.040;13.680;2023-04-25T23:56:26;99628.06;;;19.14;47.79
